createdAt,value
2023-03-03T00:00:22.642Z,77.94
2023-03-03T00:02:50.113Z,77.37
2023-03-03T00:05:17.407Z,78.30
2023-03-03T00:07:44.902Z,79.34
2023-03-03T00:10:13.264Z,79.71
2023-03-03T00:12:53.382Z,79.22
2023-03-03T00:15:31.610Z,77.38
2023-03-03T00:17:58.607Z,75.83
2023-03-03T00:20:34.433Z,78.11
2023-03-03T00:23:20.936Z,79.31
2023-03-03T00:25:49.708Z,79.39
2023-03-03T00:28:41.267Z,79.22
2023-03-03T00:31:42.999Z,79.41
2023-03-03T00:34:27.017Z,78.67
2023-03-03T00:36:58.405Z,79.60
2023-03-03T00:39:40.198Z,80.21
2023-03-03T00:42:17.330Z,79.31
2023-03-03T00:45:00.529Z,79.37
2023-03-03T00:47:36.690Z,79.25
2023-03-03T00:50:07.117Z,79.20
2023-03-03T00:52:35.814Z,79.26
2023-03-03T00:55:03.062Z,77.87
2023-03-03T00:57:32.775Z,75.25
2023-03-03T01:00:04.872Z,73.53
2023-03-03T01:02:31.732Z,74.70
2023-03-03T01:04:58.473Z,77.19
2023-03-03T01:07:26.853Z,77.58
2023-03-03T01:09:53.597Z,76.92
2023-03-03T01:12:20.707Z,78.12
2023-03-03T01:14:48.233Z,74.77
2023-03-03T01:17:15.453Z,75.65
2023-03-03T01:19:42.250Z,78.94
2023-03-03T01:22:09.014Z,79.13
2023-03-03T01:24:36.149Z,79.23
2023-03-03T01:27:04.586Z,80.10
2023-03-03T01:29:33.085Z,77.40
2023-03-03T01:32:01.007Z,79.74
2023-03-03T01:34:30.805Z,80.59
2023-03-03T01:36:57.603Z,80.44
2023-03-03T01:39:24.319Z,81.34
2023-03-03T01:41:54.751Z,82.43
2023-03-03T01:44:21.432Z,81.75
2023-03-03T01:46:59.140Z,82.04
2023-03-03T01:49:49.951Z,82.28
2023-03-03T01:52:33.916Z,81.89
2023-03-03T01:55:03.502Z,82.02
2023-03-03T01:57:33.693Z,81.22
2023-03-03T02:00:03.429Z,79.96
2023-03-03T02:02:30.653Z,77.18
2023-03-03T02:04:57.419Z,79.04
2023-03-03T02:07:24.603Z,81.12
2023-03-03T02:10:12.960Z,82.15
2023-03-03T02:12:47.906Z,82.63
2023-03-03T02:15:19.258Z,82.91
2023-03-03T02:17:46.505Z,82.09
2023-03-03T02:20:38.271Z,82.70
2023-03-03T02:23:15.112Z,82.60
2023-03-03T02:25:58.986Z,82.69
2023-03-03T02:28:31.419Z,82.65
2023-03-03T02:31:00.387Z,82.29
2023-03-03T02:33:27.382Z,82.57
2023-03-03T02:35:55.040Z,82.86
2023-03-03T02:38:22.034Z,83.63
2023-03-03T02:41:11.982Z,83.59
2023-03-03T02:43:57.418Z,82.82
2023-03-03T02:46:27.559Z,82.49
2023-03-03T02:48:54.376Z,81.83
2023-03-03T02:51:22.612Z,79.88
2023-03-03T02:53:49.725Z,78.72
2023-03-03T02:56:16.846Z,79.86
2023-03-03T02:58:43.587Z,78.01
2023-03-03T03:01:13.157Z,80.71
2023-03-03T03:03:40.183Z,81.65
2023-03-03T03:06:08.868Z,82.36
2023-03-03T03:08:37.252Z,83.00
2023-03-03T03:11:05.308Z,83.21
2023-03-03T03:13:33.480Z,84.19
2023-03-03T03:16:00.282Z,83.94
2023-03-03T03:18:27.283Z,83.64
2023-03-03T03:20:56.353Z,83.38
2023-03-03T03:23:23.544Z,83.73
2023-03-03T03:25:50.388Z,83.94
2023-03-03T03:28:17.287Z,83.92
2023-03-03T03:30:45.056Z,83.46
2023-03-03T03:33:12.311Z,83.58
2023-03-03T03:35:42.633Z,83.08
2023-03-03T03:38:09.379Z,83.93
2023-03-03T03:40:36.336Z,83.55
2023-03-03T03:43:04.779Z,83.48
2023-03-03T03:45:34.630Z,82.64
2023-03-03T03:48:01.616Z,83.30
2023-03-03T03:50:28.655Z,82.32
2023-03-03T03:52:56.867Z,80.53
2023-03-03T03:55:23.616Z,82.45
2023-03-03T03:57:50.434Z,82.90
2023-03-03T04:00:17.848Z,83.19
2023-03-03T04:02:46.144Z,83.08
2023-03-03T04:05:13.705Z,83.49
2023-03-03T04:07:40.487Z,82.98
2023-03-03T04:10:10.301Z,83.18
2023-03-03T04:12:39.947Z,82.42
2023-03-03T04:15:12.115Z,83.29
2023-03-03T04:17:38.890Z,83.92
2023-03-03T04:20:06.250Z,84.53
2023-03-03T04:22:33.451Z,83.95
2023-03-03T04:25:01.093Z,84.08
2023-03-03T04:27:29.338Z,84.18
2023-03-03T04:29:56.012Z,84.04
2023-03-03T04:32:22.810Z,83.76
2023-03-03T04:34:58.647Z,83.49
2023-03-03T04:37:36.536Z,84.03
2023-03-03T04:40:05.294Z,83.78
2023-03-03T04:42:32.152Z,83.94
2023-03-03T04:44:59.386Z,84.25
2023-03-03T04:47:29.059Z,84.48
2023-03-03T04:49:56.069Z,84.24
2023-03-03T04:52:26.877Z,84.66
2023-03-03T04:54:56.487Z,84.44
2023-03-03T04:57:24.153Z,84.73
2023-03-03T04:59:52.127Z,84.59
2023-03-03T05:02:19.005Z,84.81
2023-03-03T05:04:46.976Z,84.73
2023-03-03T05:07:13.688Z,83.82
2023-03-03T05:09:42.073Z,84.85
2023-03-03T05:12:09.297Z,84.83
2023-03-03T05:14:36.722Z,84.49
2023-03-03T05:17:04.283Z,84.82
2023-03-03T05:19:32.749Z,84.76
2023-03-03T05:21:59.874Z,84.80
2023-03-03T05:24:29.702Z,83.27
2023-03-03T05:26:59.176Z,83.81
2023-03-03T05:29:27.364Z,84.78
2023-03-03T05:31:55.352Z,84.75
2023-03-03T05:34:22.349Z,84.94
2023-03-03T05:36:49.259Z,85.41
2023-03-03T05:39:16.566Z,85.38
2023-03-03T05:41:43.309Z,84.91
2023-03-03T05:44:11.423Z,85.45
2023-03-03T05:46:39.299Z,85.54
2023-03-03T05:49:06.057Z,85.90
2023-03-03T05:51:33.214Z,85.43
2023-03-03T05:53:59.990Z,85.60
2023-03-03T05:56:28.289Z,86.20
2023-03-03T05:58:55.480Z,84.94
2023-03-03T06:01:25.760Z,85.03
2023-03-03T06:03:52.593Z,85.38
2023-03-03T06:06:23.869Z,85.61
2023-03-03T06:08:50.981Z,84.73
2023-03-03T06:11:19.272Z,83.72
2023-03-03T06:13:47.303Z,85.09
2023-03-03T06:16:14.488Z,85.38
2023-03-03T06:18:41.597Z,85.37
2023-03-03T06:21:08.709Z,84.63
2023-03-03T06:23:35.810Z,84.90
2023-03-03T06:26:16.022Z,83.97
2023-03-03T06:28:44.161Z,82.09
2023-03-03T06:31:15.034Z,78.56
2023-03-03T06:33:42.527Z,81.29
2023-03-03T06:36:09.894Z,83.45
2023-03-03T06:38:40.793Z,83.79
2023-03-03T06:41:09.132Z,83.17
2023-03-03T06:43:36.678Z,81.77
2023-03-03T06:46:04.689Z,83.12
2023-03-03T06:48:34.781Z,83.47
2023-03-03T06:51:03.512Z,83.46
2023-03-03T06:53:31.537Z,83.20
2023-03-03T06:55:58.693Z,82.97
2023-03-03T06:58:25.980Z,82.91
2023-03-03T07:00:57.721Z,83.03
2023-03-03T07:03:27.046Z,82.86
2023-03-03T07:05:54.000Z,81.53
2023-03-03T07:08:22.471Z,80.19
2023-03-03T07:10:52.186Z,79.88
2023-03-03T07:13:26.913Z,81.91
2023-03-03T07:15:57.642Z,81.70
2023-03-03T07:18:43.043Z,81.93
2023-03-03T07:21:23.608Z,81.52
2023-03-03T07:23:52.756Z,79.31
2023-03-03T07:26:20.345Z,78.93
2023-03-03T07:28:54.946Z,80.66
2023-03-03T07:31:38.162Z,79.63
2023-03-03T07:34:22.348Z,77.92
2023-03-03T07:36:54.123Z,76.28
2023-03-03T07:39:41.124Z,78.06
2023-03-03T07:42:27.114Z,77.93
2023-03-03T07:44:57.957Z,77.40
2023-03-03T07:47:26.919Z,74.60
2023-03-03T07:49:58.343Z,73.14
2023-03-03T07:52:42.080Z,72.28
2023-03-03T07:55:30.941Z,69.62
2023-03-03T07:58:03.000Z,70.93
2023-03-03T08:01:09.568Z,72.02
2023-03-03T08:03:39.620Z,74.57
2023-03-03T08:06:31.955Z,77.25
2023-03-03T08:09:10.690Z,75.92
2023-03-03T08:11:44.250Z,77.23
2023-03-03T08:14:11.287Z,77.63
2023-03-03T08:16:40.866Z,78.16
2023-03-03T08:19:07.585Z,78.73
2023-03-03T08:21:34.283Z,77.00
2023-03-03T08:24:02.273Z,75.86
2023-03-03T08:26:31.866Z,77.64
2023-03-03T08:28:58.890Z,77.21
2023-03-03T08:31:40.215Z,73.70
2023-03-03T08:34:08.172Z,72.10
2023-03-03T08:36:36.932Z,73.18
2023-03-03T08:39:04.741Z,73.37
2023-03-03T08:41:31.456Z,71.20
2023-03-03T08:43:59.469Z,70.29
2023-03-03T08:46:29.619Z,70.24
2023-03-03T08:48:56.942Z,68.82
2023-03-03T08:51:41.137Z,67.27
2023-03-03T08:54:07.846Z,65.79
2023-03-03T08:56:34.571Z,62.86
2023-03-03T08:59:04.167Z,63.03
2023-03-03T09:01:34.894Z,67.89
2023-03-03T09:04:01.664Z,70.71
2023-03-03T09:06:29.459Z,72.12
2023-03-03T09:08:59.882Z,71.01
2023-03-03T09:11:27.992Z,72.00
2023-03-03T09:14:19.281Z,75.10
2023-03-03T09:16:52.375Z,75.18
2023-03-03T09:19:35.452Z,75.11
2023-03-03T09:22:24.250Z,74.47
2023-03-03T09:24:56.036Z,73.53
2023-03-03T09:27:34.496Z,77.14
2023-03-03T09:30:30.330Z,75.63
2023-03-03T09:32:57.368Z,75.74
2023-03-03T09:35:45.589Z,75.75
2023-03-03T09:38:19.307Z,76.45
2023-03-03T09:41:11.739Z,76.34
2023-03-03T09:44:24.059Z,75.98
2023-03-03T09:47:12.416Z,74.97
2023-03-03T09:50:17.525Z,74.33
2023-03-03T09:53:03.388Z,74.03
2023-03-03T09:55:57.006Z,73.25
2023-03-03T09:58:48.116Z,73.63
2023-03-03T10:01:50.469Z,73.82
2023-03-03T10:04:58.653Z,74.41
2023-03-03T10:07:44.586Z,74.85
2023-03-03T10:10:15.168Z,72.92
2023-03-03T10:12:50.553Z,73.28
2023-03-03T10:15:24.564Z,72.60
2023-03-03T10:17:55.044Z,71.63
2023-03-03T10:20:50.166Z,72.23
2023-03-03T10:23:47.328Z,72.03
2023-03-03T10:26:45.138Z,70.95
2023-03-03T10:29:33.672Z,70.13
2023-03-03T10:32:19.502Z,69.76
2023-03-03T10:35:04.404Z,71.49
2023-03-03T10:38:07.494Z,71.27
2023-03-03T10:40:40.354Z,69.73
2023-03-03T10:43:32.015Z,68.82
2023-03-03T10:46:34.151Z,70.35
2023-03-03T10:49:46.012Z,69.63
2023-03-03T10:52:51.423Z,69.64
2023-03-03T10:55:39.382Z,68.67
2023-03-03T10:58:14.590Z,68.09
2023-03-03T11:01:28.024Z,71.76
2023-03-03T11:04:22.342Z,72.07
2023-03-03T11:07:21.214Z,71.53
2023-03-03T11:10:44.591Z,72.40
2023-03-03T11:13:56.875Z,70.98
2023-03-03T11:16:53.139Z,71.53
2023-03-03T11:19:26.350Z,71.05
2023-03-03T11:22:21.080Z,70.06
2023-03-03T11:25:06.409Z,68.89
2023-03-03T11:27:45.688Z,71.66
2023-03-03T11:30:19.316Z,71.12
2023-03-03T11:32:53.617Z,70.23
2023-03-03T11:35:39.947Z,69.60
2023-03-03T11:38:30.361Z,67.53
2023-03-03T11:41:23.752Z,67.03
2023-03-03T11:43:56.459Z,66.30
2023-03-03T11:46:44.695Z,69.80
2023-03-03T11:49:16.240Z,66.83
2023-03-03T11:51:54.538Z,65.01
2023-03-03T11:54:45.584Z,63.55
2023-03-03T11:57:36.983Z,62.68
2023-03-03T12:00:35.996Z,66.17
2023-03-03T12:03:11.313Z,64.20
2023-03-03T12:05:53.295Z,64.65
2023-03-03T12:08:42.342Z,61.57
2023-03-03T12:11:43.218Z,61.22
2023-03-03T12:14:13.275Z,61.26
2023-03-03T12:16:56.015Z,58.66
2023-03-03T12:19:34.161Z,59.24
2023-03-03T12:22:35.566Z,59.72
2023-03-03T12:25:22.637Z,58.97
2023-03-03T12:28:01.813Z,58.49
2023-03-03T12:30:46.354Z,57.51
2023-03-03T12:33:19.456Z,57.59
2023-03-03T12:35:50.897Z,57.40
2023-03-03T12:38:29.601Z,57.74
2023-03-03T12:41:14.204Z,56.94
2023-03-03T12:43:58.355Z,55.75
2023-03-03T12:47:00.406Z,55.80
2023-03-03T12:49:48.120Z,56.67
2023-03-03T12:52:43.727Z,58.36
2023-03-03T12:55:21.428Z,60.87
2023-03-03T12:58:25.632Z,65.06
2023-03-03T13:01:02.634Z,64.00
2023-03-03T13:03:53.194Z,66.15
2023-03-03T13:06:27.998Z,62.57
2023-03-03T13:09:00.479Z,63.17
2023-03-03T13:11:30.584Z,59.37
2023-03-03T13:14:02.453Z,61.33
2023-03-03T13:16:40.979Z,62.73
2023-03-03T13:19:11.375Z,64.50
2023-03-03T13:22:00.024Z,62.87
2023-03-03T13:24:41.679Z,59.23
2023-03-03T13:27:14.283Z,58.71
2023-03-03T13:29:50.632Z,60.72
2023-03-03T13:32:32.515Z,62.31
2023-03-03T13:35:07.565Z,60.53
2023-03-03T13:37:48.207Z,58.06
2023-03-03T13:40:24.569Z,58.21
2023-03-03T13:43:27.996Z,58.34
2023-03-03T13:45:58.084Z,56.07
2023-03-03T13:48:47.984Z,55.85
2023-03-03T13:51:56.363Z,57.92
2023-03-03T13:54:44.257Z,55.79
2023-03-03T13:57:10.898Z,59.23
2023-03-03T14:00:07.899Z,56.43
2023-03-03T14:02:43.627Z,56.05
2023-03-03T14:05:29.281Z,56.17
2023-03-03T14:08:04.068Z,56.73
2023-03-03T14:10:32.863Z,59.31
2023-03-03T14:13:13.893Z,57.59
2023-03-03T14:15:43.568Z,56.99
2023-03-03T14:18:47.960Z,56.89
2023-03-03T14:21:23.728Z,57.87
2023-03-03T14:23:53.258Z,56.29
2023-03-03T14:26:19.985Z,58.47
2023-03-03T14:28:47.986Z,59.58
2023-03-03T14:31:28.931Z,57.30
2023-03-03T14:34:01.474Z,55.39
2023-03-03T14:36:32.855Z,54.99
2023-03-03T14:38:59.593Z,55.01
2023-03-03T14:41:41.689Z,53.26
2023-03-03T14:44:21.615Z,55.95
2023-03-03T14:47:05.314Z,56.50
2023-03-03T14:49:34.828Z,56.25
2023-03-03T14:52:22.938Z,55.30
2023-03-03T14:54:54.428Z,54.83
2023-03-03T14:57:40.031Z,53.80
2023-03-03T15:00:26.800Z,51.27
2023-03-03T15:03:14.878Z,53.80
2023-03-03T15:05:49.057Z,53.32
2023-03-03T15:08:15.782Z,52.94
2023-03-03T15:10:45.638Z,51.69
2023-03-03T15:13:33.478Z,51.91
2023-03-03T15:16:00.185Z,52.72
2023-03-03T15:18:28.174Z,51.11
2023-03-03T15:21:10.441Z,54.91
2023-03-03T15:24:02.928Z,53.14
2023-03-03T15:26:53.279Z,53.50
2023-03-03T15:29:41.352Z,56.06
2023-03-03T15:32:13.090Z,57.87
2023-03-03T15:34:51.907Z,56.23
2023-03-03T15:37:35.196Z,55.93
2023-03-03T15:40:22.432Z,56.11
2023-03-03T15:43:05.938Z,57.23
2023-03-03T15:45:57.112Z,56.80
2023-03-03T15:48:36.564Z,57.83
2023-03-03T15:51:24.382Z,56.52
2023-03-03T15:54:15.521Z,56.54
2023-03-03T15:57:04.843Z,57.10
2023-03-03T15:59:59.329Z,58.85
2023-03-03T16:02:52.498Z,59.11
2023-03-03T16:05:34.770Z,58.46
2023-03-03T16:08:14.064Z,56.95
2023-03-03T16:11:06.024Z,56.05
2023-03-03T16:13:51.806Z,56.60
2023-03-03T16:16:30.939Z,57.55
2023-03-03T16:19:25.733Z,57.81
2023-03-03T16:22:16.853Z,57.58
2023-03-03T16:24:53.823Z,57.00
2023-03-03T16:27:50.070Z,56.16
2023-03-03T16:30:36.985Z,57.84
2023-03-03T16:33:24.225Z,57.10
2023-03-03T16:36:18.176Z,57.56
2023-03-03T16:38:50.018Z,57.40
2023-03-03T16:41:26.274Z,57.79
2023-03-03T16:43:59.062Z,56.91
2023-03-03T16:47:12.425Z,57.31
2023-03-03T16:50:05.839Z,58.63
2023-03-03T16:52:43.450Z,57.69
2023-03-03T16:55:20.046Z,56.83
2023-03-03T16:57:55.980Z,56.16
2023-03-03T17:00:30.285Z,57.86
2023-03-03T17:03:05.888Z,56.15
2023-03-03T17:06:00.729Z,58.50
2023-03-03T17:08:45.634Z,59.03
2023-03-03T17:11:50.895Z,61.37
2023-03-03T17:14:42.253Z,61.83
2023-03-03T17:17:32.424Z,60.96
2023-03-03T17:20:20.177Z,60.11
2023-03-03T17:23:04.283Z,60.18
2023-03-03T17:25:37.129Z,58.23
2023-03-03T17:28:31.178Z,58.00
2023-03-03T17:30:57.849Z,60.13
2023-03-03T17:33:35.173Z,58.86
2023-03-03T17:36:08.182Z,59.90
2023-03-03T17:38:34.778Z,60.71
2023-03-03T17:41:20.209Z,62.05
2023-03-03T17:44:24.740Z,61.70
2023-03-03T17:46:55.641Z,60.42
2023-03-03T17:49:34.333Z,59.60
2023-03-03T17:52:13.096Z,59.24
2023-03-03T17:55:00.744Z,60.12
2023-03-03T17:57:39.576Z,61.17
2023-03-03T18:00:24.577Z,64.14
2023-03-03T18:03:36.007Z,66.44
2023-03-03T18:06:29.483Z,67.17
2023-03-03T18:09:32.017Z,67.43
2023-03-03T18:12:37.282Z,66.91
2023-03-03T18:15:32.030Z,67.81
2023-03-03T18:18:10.190Z,68.34
2023-03-03T18:21:02.478Z,71.10
2023-03-03T18:23:40.157Z,69.99
2023-03-03T18:26:28.541Z,65.95
2023-03-03T18:29:18.662Z,64.14
2023-03-03T18:31:58.315Z,64.25
2023-03-03T18:34:30.208Z,63.51
2023-03-03T18:36:58.278Z,62.70
2023-03-03T18:39:47.342Z,62.45
2023-03-03T18:42:21.618Z,61.11
2023-03-03T18:44:48.447Z,60.24
2023-03-03T18:47:15.172Z,59.21
2023-03-03T18:49:57.568Z,60.82
2023-03-03T18:52:28.824Z,62.20
2023-03-03T18:55:13.555Z,61.83
2023-03-03T18:57:40.388Z,63.06
2023-03-03T19:00:28.923Z,64.96
2023-03-03T19:02:56.873Z,66.18
2023-03-03T19:05:25.470Z,65.49
2023-03-03T19:07:57.442Z,65.65
2023-03-03T19:10:52.959Z,63.87
2023-03-03T19:13:42.086Z,63.62
2023-03-03T19:16:29.381Z,62.55
2023-03-03T19:18:56.013Z,62.00
2023-03-03T19:21:32.312Z,60.89
2023-03-03T19:24:09.004Z,59.66
2023-03-03T19:26:54.294Z,60.54
2023-03-03T19:29:34.391Z,59.41
2023-03-03T19:32:24.052Z,59.57
2023-03-03T19:35:21.085Z,60.61
2023-03-03T19:38:23.241Z,58.89
2023-03-03T19:41:02.120Z,58.20
2023-03-03T19:43:35.270Z,58.90
2023-03-03T19:46:50.503Z,59.33
2023-03-03T19:49:48.635Z,60.05
2023-03-03T19:52:23.035Z,59.85
2023-03-03T19:54:58.951Z,62.48
2023-03-03T19:57:56.394Z,61.84
2023-03-03T20:00:41.426Z,60.88
2023-03-03T20:03:27.600Z,65.39
2023-03-03T20:06:17.100Z,69.54
2023-03-03T20:09:21.562Z,68.70
2023-03-03T20:12:25.178Z,69.67
2023-03-03T20:14:55.702Z,68.57
2023-03-03T20:17:36.250Z,70.26
2023-03-03T20:20:20.474Z,70.06
2023-03-03T20:23:12.302Z,69.14
2023-03-03T20:25:46.430Z,69.52
2023-03-03T20:28:18.255Z,71.48
2023-03-03T20:31:19.600Z,70.64
2023-03-03T20:34:02.954Z,71.44
2023-03-03T20:36:41.709Z,71.75
2023-03-03T20:39:33.394Z,69.84
2023-03-03T20:42:15.154Z,66.87
2023-03-03T20:44:59.405Z,64.52
2023-03-03T20:47:33.529Z,63.08
2023-03-03T20:50:27.133Z,62.07
2023-03-03T20:53:35.447Z,65.79
2023-03-03T20:56:37.381Z,63.81
2023-03-03T20:59:35.990Z,64.85
2023-03-03T21:02:10.318Z,64.12
2023-03-03T21:04:37.314Z,64.61
2023-03-03T21:07:04.288Z,63.53
2023-03-03T21:09:33.306Z,62.78
2023-03-03T21:12:01.085Z,61.77
2023-03-03T21:14:28.913Z,60.89
2023-03-03T21:17:02.758Z,63.06
2023-03-03T21:19:33.573Z,61.98
2023-03-03T21:22:02.357Z,61.17
2023-03-03T21:24:48.733Z,61.31
2023-03-03T21:27:35.409Z,66.26
2023-03-03T21:30:15.939Z,66.69
2023-03-03T21:32:48.288Z,63.90
2023-03-03T21:35:18.822Z,63.31
2023-03-03T21:37:53.334Z,61.97
2023-03-03T21:40:24.781Z,61.76
2023-03-03T21:42:52.716Z,60.59
2023-03-03T21:45:19.517Z,61.12
2023-03-03T21:47:47.490Z,61.18
2023-03-03T21:50:15.953Z,59.79
2023-03-03T21:52:42.766Z,61.00
2023-03-03T21:55:09.757Z,60.29
2023-03-03T21:57:36.474Z,59.38
2023-03-03T22:00:08.123Z,58.87
2023-03-03T22:02:35.323Z,60.61
2023-03-03T22:05:02.238Z,60.17
2023-03-03T22:07:30.612Z,58.64
2023-03-03T22:09:57.801Z,62.02
2023-03-03T22:12:27.509Z,60.80
2023-03-03T22:14:54.671Z,59.16
2023-03-03T22:17:24.323Z,59.94
2023-03-03T22:19:52.570Z,65.83
2023-03-03T22:22:19.280Z,66.57
2023-03-03T22:24:48.285Z,66.30
2023-03-03T22:27:15.353Z,70.59
2023-03-03T22:29:42.778Z,68.46
2023-03-03T22:32:09.560Z,67.32
2023-03-03T22:34:36.399Z,70.48
2023-03-03T22:37:03.109Z,73.14
2023-03-03T22:39:30.231Z,73.94
2023-03-03T22:41:57.344Z,74.78
2023-03-03T22:44:24.530Z,75.55
2023-03-03T22:46:52.486Z,76.24
2023-03-03T22:49:19.328Z,76.37
2023-03-03T22:51:46.411Z,76.52
2023-03-03T22:54:14.516Z,75.95
2023-03-03T22:56:41.621Z,74.59
2023-03-03T22:59:08.319Z,76.43
2023-03-03T23:01:36.074Z,76.25
2023-03-03T23:04:02.830Z,76.58
2023-03-03T23:06:29.684Z,76.98
2023-03-03T23:08:56.388Z,77.02
2023-03-03T23:11:23.089Z,77.10
2023-03-03T23:13:49.919Z,77.99
2023-03-03T23:16:17.212Z,78.01
2023-03-03T23:18:44.334Z,78.42
2023-03-03T23:21:11.041Z,78.53
2023-03-03T23:23:38.708Z,79.10
2023-03-03T23:26:05.959Z,79.25
2023-03-03T23:28:34.352Z,79.01
2023-03-03T23:31:01.295Z,79.47
2023-03-03T23:33:30.882Z,80.17
2023-03-03T23:35:59.283Z,80.42
2023-03-03T23:38:26.033Z,80.89
2023-03-03T23:40:55.604Z,80.58
2023-03-03T23:43:22.364Z,80.75
2023-03-03T23:45:49.159Z,80.19
2023-03-03T23:48:15.846Z,80.46
2023-03-03T23:50:43.090Z,80.46
2023-03-03T23:53:09.954Z,80.85
2023-03-03T23:55:36.734Z,81.49
2023-03-03T23:58:04.061Z,81.43
